Aérodrome :
LOGIN :

S'inscrire | Disclaimer

   EN    FR    IT 

 










Légende :    VFR   VFR Marginal   IFR   IFR Intensif   IFR Très Intensif
Visi : 
Plafond : 
>= 8 km
>= 3000ft
5 à 8 km
1000 à 3000 ft
1500m à 5 km
500 à 1000 ft
800 à 1500m
200 à 500 ft
< 800m
< 200 ft
Symboles :   Orages  Brouillard  Fortes neiges  Fortes précipitations  Vent > 20 kt
SIGMETs :   Divers  Orages  Givrage  Turbulence  Onde Orograph.  Cendres Volcan.







- Altitude de l'aérodrome : 1416 ft
- Code IATA : ZRH


LSZH - Zurich

DERNIER METAR :
  • 241550Z 01007KT 340V070 9000 BKN021 10/06 Q1023 NOSIG

METARs EXPIRÉS :
  • 241520Z 01009KT 330V040 9000 SCT022 BKN180 11/06 Q1022 NOSIG
  • 241450Z 01009KT 330V040 9999 SCT023 BKN180 11/06 Q1022 NOSIG
  • 241420Z 03010G20KT 360V080 9999 FEW024 BKN180 12/06 Q1022 NOSIG
  • 241350Z 03012KT 9999 FEW024 BKN180 12/06 Q1022 NOSIG
  • 241320Z 03009KT 350V060 9999 FEW022 BKN200 12/06 Q1022 NOSIG
  • 241250Z 03008KT 350V080 9999 FEW020 BKN210 12/06 Q1022 NOSIG

TAF TAF LSZH
Valide du 24 à 15h jusqu'au 25 à 21h UTC


241425Z 2415/2521 03012KT 9999 FEW025 BKN180 TX13/2416Z TN04/2506Z TX17/2515Z
BECMG 2418/2421 03004KT BKN012
BECMG 2421/2424 4000 BR
PROB40 2500/2510 BKN009
BECMG 2509/2512 06012G25KT SCT015
BECMG 2518/2520 02006KT
ATIS : +41 43 816 2295 (DEP) +41 43 816 2294 (ARR)
Pas de NOTAMs connus pour ce terrain.



MET'MAP, la Météo Aéronautique d'un coup d'oeil ! - Copyright ORBIFLY Décembre 2007 - Disclaimer

ORBIFLY MET'MAP TEAM :

Programmation & Développement : Alexandra Zaïnal
Conception & Développement : Baudouin d'Aumeries
Co-Programmation & Développement : Marc-Olivier Méhu
Soutien technique & logistique : Manuel Goepfert

Contact : metmap@orbifly.com




SOURCES & CREDITS :

   NOAA